createdAt,value
2022-08-12T00:00:39.842Z,0.30
2022-08-12T00:03:25.292Z,0.40
2022-08-12T00:06:10.366Z,0.60
2022-08-12T00:08:56.257Z,0.70
2022-08-12T00:11:41.484Z,0.50
2022-08-12T00:14:26.908Z,0.40
2022-08-12T00:17:12.092Z,0.30
2022-08-12T00:19:56.929Z,0.20
2022-08-12T00:22:42.694Z,0.35
2022-08-12T00:26:05.597Z,0.20
2022-08-12T00:28:33.509Z,0.30
2022-08-12T00:31:18.737Z,0.30
2022-08-12T00:34:03.630Z,0.30
2022-08-12T00:36:50.595Z,0.35
2022-08-12T00:39:35.619Z,0.30
2022-08-12T00:42:11.248Z,0.20
2022-08-12T00:44:44.896Z,0.30
2022-08-12T00:47:24.554Z,0.30
2022-08-12T00:49:52.385Z,0.30
2022-08-12T00:52:19.449Z,0.30
2022-08-12T00:54:47.074Z,0.30
2022-08-12T00:57:17.449Z,0.30
2022-08-12T00:59:51.866Z,0.50
2022-08-12T01:02:38.841Z,0.50
2022-08-12T01:05:25.778Z,0.40
2022-08-12T01:08:11.182Z,0.40
2022-08-12T01:10:57.789Z,0.38
2022-08-12T01:13:24.689Z,0.40
2022-08-12T01:15:52.897Z,0.35
2022-08-12T01:18:20.905Z,0.40
2022-08-12T01:20:47.330Z,0.30
2022-08-12T01:23:22.535Z,0.50
2022-08-12T01:25:55.690Z,0.40
2022-08-12T01:28:24.020Z,0.40
2022-08-12T01:30:50.610Z,0.40
2022-08-12T01:33:18.283Z,0.40
2022-08-12T01:35:57.964Z,0.50
2022-08-12T01:38:35.718Z,0.60
2022-08-12T01:41:03.526Z,0.40
2022-08-12T01:43:30.403Z,0.40
2022-08-12T01:46:15.418Z,0.50
2022-08-12T01:48:53.964Z,0.30
2022-08-12T01:52:21.624Z,0.40
2022-08-12T01:54:14.278Z,0.40
2022-08-12T01:56:58.919Z,0.40
2022-08-12T01:59:47.363Z,0.40
2022-08-12T02:02:17.120Z,0.25
2022-08-12T02:05:34.548Z,0.22
2022-08-12T02:08:45.593Z,0.30
2022-08-12T02:11:18.343Z,0.35
2022-08-12T02:14:03.208Z,0.20
2022-08-12T02:16:32.363Z,0.30
2022-08-12T02:19:21.956Z,0.20
2022-08-12T02:21:49.534Z,0.30
2022-08-12T02:24:18.650Z,0.25
2022-08-12T02:26:46.573Z,0.17
2022-08-12T02:29:14.299Z,0.10
2022-08-12T02:31:43.008Z,0.20
2022-08-12T02:34:09.564Z,0.20
2022-08-12T02:36:39.062Z,0.20
2022-08-12T02:39:07.897Z,0.28
2022-08-12T02:41:36.050Z,0.10
2022-08-12T02:44:07.518Z,0.20
2022-08-12T02:46:34.937Z,0.10
2022-08-12T02:49:15.078Z,0.20
2022-08-12T02:51:44.671Z,0.25
2022-08-12T02:54:11.434Z,0.30
2022-08-12T02:56:42.035Z,0.30
2022-08-12T02:59:17.893Z,0.50
2022-08-12T03:01:49.723Z,0.32
2022-08-12T03:04:34.794Z,0.40
2022-08-12T03:07:10.125Z,0.70
2022-08-12T03:10:03.519Z,0.50
2022-08-12T03:12:26.565Z,0.50
2022-08-12T03:15:02.489Z,0.50
2022-08-12T03:17:31.349Z,0.75
2022-08-12T03:20:10.295Z,0.70
2022-08-12T03:22:40.863Z,0.63
2022-08-12T03:25:12.370Z,0.60
2022-08-12T03:27:55.766Z,0.63
2022-08-12T03:30:26.216Z,0.50
2022-08-12T03:32:53.540Z,0.60
2022-08-12T03:35:40.332Z,0.50
2022-08-12T03:38:11.981Z,0.50
2022-08-12T03:41:07.041Z,0.70
2022-08-12T03:43:57.424Z,0.90
2022-08-12T03:46:50.120Z,0.70
2022-08-12T03:49:35.494Z,0.60
2022-08-12T03:52:20.798Z,0.70
2022-08-12T03:55:05.623Z,0.45
2022-08-12T03:57:50.772Z,0.50
2022-08-12T04:00:24.225Z,0.40
2022-08-12T04:02:59.175Z,0.28
2022-08-12T04:05:54.612Z,0.30
2022-08-12T04:08:14.606Z,0.30
2022-08-12T04:10:59.653Z,0.43
2022-08-12T04:13:26.001Z,0.30
2022-08-12T04:15:52.751Z,0.38
2022-08-12T04:18:19.129Z,0.43
2022-08-12T04:20:50.033Z,0.68
2022-08-12T04:23:16.673Z,0.67
2022-08-12T04:25:44.448Z,0.60
2022-08-12T04:28:13.476Z,0.45
2022-08-12T04:30:40.437Z,0.40
2022-08-12T04:33:09.494Z,0.60
2022-08-12T04:35:35.987Z,0.30
2022-08-12T04:38:02.907Z,0.25
2022-08-12T04:40:30.980Z,0.28
2022-08-12T04:42:57.833Z,0.60
2022-08-12T04:45:24.892Z,0.40
2022-08-12T04:47:51.603Z,0.50
2022-08-12T04:50:34.556Z,0.25
2022-08-12T04:53:03.261Z,0.38
2022-08-12T04:55:30.111Z,0.30
2022-08-12T04:57:56.757Z,0.30
2022-08-12T05:00:23.117Z,0.30
2022-08-12T05:02:49.596Z,0.25
2022-08-12T05:05:20.396Z,0.20
2022-08-12T05:07:54.369Z,0.50
2022-08-12T05:10:21.868Z,0.40
2022-08-12T05:13:02.414Z,0.30
2022-08-12T05:15:30.452Z,0.40
2022-08-12T05:18:00.003Z,0.28
2022-08-12T05:20:29.633Z,0.35
2022-08-12T05:23:12.648Z,0.20
2022-08-12T05:25:44.045Z,0.28
2022-08-12T05:28:11.398Z,0.40
2022-08-12T05:30:37.735Z,0.50
2022-08-12T05:33:05.263Z,0.45
2022-08-12T05:35:42.914Z,0.38
2022-08-12T05:38:28.837Z,0.20
2022-08-12T05:40:55.561Z,0.20
2022-08-12T05:43:22.292Z,0.30
2022-08-12T05:45:49.594Z,0.38
2022-08-12T05:48:16.028Z,0.20
2022-08-12T05:50:43.219Z,0.30
2022-08-12T05:53:09.636Z,0.45
2022-08-12T05:55:36.789Z,0.47
2022-08-12T05:58:04.807Z,0.30
2022-08-12T06:00:32.105Z,0.60
2022-08-12T06:03:01.876Z,0.40
2022-08-12T06:05:29.063Z,0.40
2022-08-12T06:08:02.309Z,0.40
2022-08-12T06:10:32.076Z,0.30
2022-08-12T06:12:59.432Z,0.47
2022-08-12T06:15:25.752Z,0.40
2022-08-12T06:17:52.401Z,0.50
2022-08-12T06:20:26.025Z,0.45
2022-08-12T06:23:00.100Z,0.45
2022-08-12T06:25:29.031Z,0.40
2022-08-12T06:28:07.255Z,0.50
2022-08-12T06:30:38.539Z,0.40
2022-08-12T06:33:24.759Z,0.50
2022-08-12T06:35:54.352Z,0.60
2022-08-12T06:38:25.444Z,0.68
2022-08-12T06:41:14.746Z,0.70
2022-08-12T06:44:04.585Z,0.50
2022-08-12T06:46:29.058Z,0.73
2022-08-12T06:48:59.062Z,0.80
2022-08-12T06:51:30.320Z,0.50
2022-08-12T06:53:57.414Z,0.60
2022-08-12T06:56:34.995Z,0.60
2022-08-12T06:59:11.325Z,0.77
2022-08-12T07:01:38.449Z,0.60
2022-08-12T07:04:33.378Z,0.30
2022-08-12T07:06:51.436Z,0.47
2022-08-12T07:10:00.008Z,0.40
2022-08-12T07:12:04.658Z,0.50
2022-08-12T07:14:31.528Z,0.40
2022-08-12T07:17:02.232Z,0.40
2022-08-12T07:19:40.485Z,0.40
2022-08-12T07:22:13.524Z,0.30
2022-08-12T07:24:39.925Z,0.50
2022-08-12T07:27:06.321Z,0.90
2022-08-12T07:30:04.402Z,0.60
2022-08-12T07:32:23.631Z,0.80
2022-08-12T07:34:50.300Z,0.80
2022-08-12T07:37:17.682Z,1.23
2022-08-12T07:39:50.923Z,1.55
2022-08-12T07:42:26.620Z,1.13
2022-08-12T07:44:53.513Z,1.52
2022-08-12T07:47:19.991Z,1.10
2022-08-12T07:50:05.586Z,1.05
2022-08-12T07:52:33.589Z,0.95
2022-08-12T07:55:00.156Z,1.45
2022-08-12T07:57:26.487Z,0.90
2022-08-12T07:59:52.962Z,1.30
2022-08-12T08:02:26.860Z,1.20
2022-08-12T08:04:56.416Z,0.75
2022-08-12T08:07:23.776Z,0.70
2022-08-12T08:09:50.264Z,1.45
2022-08-12T08:12:44.041Z,1.00
2022-08-12T08:15:11.147Z,1.00
2022-08-12T08:17:38.355Z,0.60
2022-08-12T08:20:06.057Z,0.80
2022-08-12T08:22:41.879Z,0.85
2022-08-12T08:25:34.402Z,1.02
2022-08-12T08:27:55.537Z,1.40
2022-08-12T08:30:22.005Z,1.23
2022-08-12T08:32:48.730Z,1.38
2022-08-12T08:35:15.113Z,1.60
2022-08-12T08:37:46.257Z,1.50
2022-08-12T08:40:33.416Z,1.10
2022-08-12T08:42:59.865Z,0.82
2022-08-12T08:45:27.637Z,1.13
2022-08-12T08:47:57.221Z,1.10
2022-08-12T08:50:26.979Z,1.58
2022-08-12T08:52:53.344Z,1.63
2022-08-12T08:55:25.583Z,1.15
2022-08-12T08:57:56.629Z,1.60
2022-08-12T09:00:23.058Z,1.38
2022-08-12T09:02:58.833Z,1.23
2022-08-12T09:05:26.799Z,1.00
2022-08-12T09:08:12.869Z,1.00
2022-08-12T09:10:45.149Z,0.82
2022-08-12T09:14:11.290Z,0.60
2022-08-12T09:16:27.644Z,0.50
2022-08-12T09:18:57.702Z,0.60
2022-08-12T09:21:29.038Z,0.75
2022-08-12T09:24:19.035Z,1.10
2022-08-12T09:26:46.973Z,1.38
2022-08-12T09:29:14.217Z,1.65
2022-08-12T09:32:03.780Z,0.77
2022-08-12T09:34:36.141Z,0.85
2022-08-12T09:37:19.191Z,1.30
2022-08-12T09:40:01.851Z,0.60
2022-08-12T09:43:15.565Z,0.90
2022-08-12T09:46:20.042Z,1.30
2022-08-12T09:48:35.148Z,1.00
2022-08-12T09:51:03.613Z,0.50
2022-08-12T09:53:36.298Z,0.90
2022-08-12T09:56:58.729Z,0.65
2022-08-12T09:58:59.585Z,1.20
2022-08-12T10:01:35.140Z,0.80
2022-08-12T10:04:13.578Z,0.80
2022-08-12T10:06:54.076Z,1.40
2022-08-12T10:09:23.209Z,1.00
2022-08-12T10:12:13.791Z,1.38
2022-08-12T10:14:52.599Z,1.25
2022-08-12T10:17:22.692Z,0.80
2022-08-12T10:19:52.515Z,0.50
2022-08-12T10:22:39.539Z,0.70
2022-08-12T10:26:18.426Z,0.93
2022-08-12T10:28:30.339Z,0.40
2022-08-12T10:30:59.178Z,0.30
2022-08-12T10:33:30.804Z,0.63
2022-08-12T10:35:59.846Z,0.52
2022-08-12T10:38:37.289Z,0.40
2022-08-12T10:41:57.063Z,0.50
2022-08-12T10:44:17.414Z,0.80
2022-08-12T10:46:45.920Z,0.70
2022-08-12T10:50:03.387Z,0.63
2022-08-12T10:52:34.902Z,0.70
2022-08-12T10:54:52.322Z,0.50
2022-08-12T10:58:12.974Z,0.95
2022-08-12T11:00:35.274Z,1.13
2022-08-12T11:04:23.739Z,1.00
2022-08-12T11:07:02.905Z,0.60
2022-08-12T11:08:38.249Z,0.60
2022-08-12T11:11:13.637Z,0.50
2022-08-12T11:13:46.877Z,0.40
2022-08-12T11:16:22.565Z,0.43
2022-08-12T11:18:54.682Z,0.80
2022-08-12T11:21:21.162Z,1.10
2022-08-12T11:23:53.574Z,0.70
2022-08-12T11:26:21.565Z,0.80
2022-08-12T11:28:59.325Z,0.77
2022-08-12T11:31:40.855Z,0.73
2022-08-12T11:34:52.979Z,0.70
2022-08-12T11:37:05.872Z,0.52
2022-08-12T11:42:34.487Z,0.60
2022-08-12T11:45:01.301Z,1.10
2022-08-12T11:47:27.634Z,0.90
2022-08-12T11:49:54.127Z,0.70
2022-08-12T11:52:55.434Z,0.70
2022-08-12T11:55:07.406Z,0.77
2022-08-12T11:58:34.155Z,0.73
2022-08-12T12:03:07.367Z,0.50
2022-08-12T12:05:41.759Z,1.30
2022-08-12T12:08:38.852Z,1.02
2022-08-12T12:11:09.200Z,1.20
2022-08-12T12:14:06.571Z,0.60
2022-08-12T12:16:22.295Z,0.40
2022-08-12T12:18:48.834Z,0.35
2022-08-12T12:21:16.254Z,0.88
2022-08-12T12:23:47.102Z,1.00
2022-08-12T12:29:00.147Z,1.45
2022-08-12T12:32:10.249Z,1.27
2022-08-12T12:34:30.350Z,0.80
2022-08-12T12:36:57.661Z,0.60
2022-08-12T12:39:27.312Z,0.80
2022-08-12T12:42:43.040Z,0.40
2022-08-12T12:44:50.703Z,0.70
2022-08-12T12:47:29.176Z,0.50
2022-08-12T12:49:56.599Z,0.30
2022-08-12T12:52:26.832Z,0.50
2022-08-12T12:54:57.489Z,0.63
2022-08-12T12:57:36.197Z,0.70
2022-08-12T13:00:17.987Z,0.57
2022-08-12T13:02:57.986Z,0.40
2022-08-12T13:05:42.332Z,0.40
2022-08-12T13:08:27.962Z,0.20
2022-08-12T13:10:55.816Z,0.32
2022-08-12T13:14:10.083Z,0.82
2022-08-12T13:16:14.437Z,0.50
2022-08-12T13:18:45.118Z,0.60
2022-08-12T13:21:33.260Z,0.47
2022-08-12T13:24:09.572Z,0.40
2022-08-12T13:26:37.832Z,0.43
2022-08-12T13:29:04.238Z,0.50
2022-08-12T13:31:30.702Z,0.80
2022-08-12T13:34:32.132Z,0.55
2022-08-12T13:36:50.768Z,0.68
2022-08-12T13:39:17.967Z,0.70
2022-08-12T13:41:44.501Z,0.30
2022-08-12T13:44:11.758Z,0.30
2022-08-12T13:46:40.905Z,0.45
2022-08-12T13:49:11.528Z,0.30
2022-08-12T13:51:51.125Z,0.20
2022-08-12T13:54:19.464Z,0.50
2022-08-12T13:56:49.985Z,0.80
2022-08-12T13:59:20.395Z,0.50
2022-08-12T14:01:52.356Z,0.50
2022-08-12T14:04:23.128Z,0.60
2022-08-12T14:06:51.278Z,0.52
2022-08-12T14:09:19.965Z,0.57
2022-08-12T14:11:59.055Z,0.80
2022-08-12T14:14:31.588Z,0.40
2022-08-12T14:17:05.228Z,0.50
2022-08-12T14:19:35.686Z,0.60
2022-08-12T14:22:06.815Z,0.55
2022-08-12T14:24:40.284Z,0.60
2022-08-12T14:27:09.064Z,0.47
2022-08-12T14:30:04.539Z,0.60
2022-08-12T14:32:23.751Z,0.35
2022-08-12T14:34:51.330Z,0.50
2022-08-12T14:37:56.473Z,0.57
2022-08-12T14:40:05.619Z,0.52
2022-08-12T14:42:32.137Z,0.30
2022-08-12T14:45:01.169Z,0.13
2022-08-12T14:47:29.326Z,0.30
2022-08-12T14:50:37.590Z,0.20
2022-08-12T14:58:25.156Z,0.70
2022-08-12T15:01:11.318Z,0.85
2022-08-12T15:03:57.096Z,0.90
2022-08-12T15:06:44.141Z,0.60
2022-08-12T15:09:12.242Z,0.70
2022-08-12T15:11:54.925Z,0.60
2022-08-12T15:14:26.186Z,0.60
2022-08-12T15:16:53.918Z,0.90
2022-08-12T15:20:27.929Z,0.60
2022-08-12T15:22:37.373Z,0.40
2022-08-12T15:24:53.293Z,0.30
2022-08-12T15:27:22.525Z,0.60
2022-08-12T15:29:58.260Z,0.90
2022-08-12T15:32:32.082Z,0.80
2022-08-12T15:35:00.443Z,0.60
2022-08-12T15:38:08.134Z,0.60
2022-08-12T15:40:13.634Z,0.30
2022-08-12T15:42:40.070Z,0.50
2022-08-12T15:45:08.657Z,0.50
2022-08-12T15:47:48.161Z,0.40
2022-08-12T15:50:23.093Z,0.30
2022-08-12T15:52:50.295Z,0.57
2022-08-12T15:55:18.152Z,0.50
2022-08-12T15:57:54.486Z,0.60
2022-08-12T16:00:33.375Z,0.40
2022-08-12T16:03:01.785Z,0.57
2022-08-12T16:06:11.458Z,0.40
2022-08-12T16:08:27.097Z,0.35
2022-08-12T16:10:54.627Z,0.30
2022-08-12T16:13:25.261Z,0.30
2022-08-12T16:16:03.948Z,0.40
2022-08-12T16:18:33.253Z,0.40
2022-08-12T16:21:00.341Z,0.30
2022-08-12T16:23:52.172Z,0.35
2022-08-12T16:26:15.210Z,0.38
2022-08-12T16:28:42.625Z,0.45
2022-08-12T16:31:13.293Z,0.40
2022-08-12T16:34:00.672Z,0.40
2022-08-12T16:36:28.279Z,0.40
2022-08-12T16:38:54.612Z,0.32
2022-08-12T16:41:22.439Z,0.60
2022-08-12T16:43:49.043Z,0.50
2022-08-12T16:46:32.301Z,0.30
2022-08-12T16:49:04.234Z,0.30
2022-08-12T16:51:45.830Z,0.30
2022-08-12T16:54:16.240Z,0.30
2022-08-12T16:56:55.176Z,0.20
2022-08-12T16:59:53.607Z,0.30
2022-08-12T17:02:31.793Z,0.50
2022-08-12T17:05:00.065Z,0.50
2022-08-12T17:07:36.269Z,0.40
2022-08-12T17:10:05.432Z,0.70
2022-08-12T17:12:31.888Z,0.30
2022-08-12T17:14:58.376Z,0.40
2022-08-12T17:17:39.416Z,0.35
2022-08-12T17:20:30.585Z,0.30
2022-08-12T17:22:56.448Z,0.60
2022-08-12T17:25:24.089Z,0.47
2022-08-12T17:27:57.348Z,0.30
2022-08-12T17:30:24.492Z,0.30
2022-08-12T17:32:53.362Z,0.40
2022-08-12T17:35:36.702Z,0.70
2022-08-12T17:38:05.364Z,0.30
2022-08-12T17:40:35.903Z,0.30
2022-08-12T17:43:52.141Z,0.20
2022-08-12T17:45:52.695Z,0.32
2022-08-12T17:48:21.754Z,0.30
2022-08-12T17:50:50.560Z,0.23
2022-08-12T17:53:19.258Z,0.30
2022-08-12T17:55:52.092Z,0.20
2022-08-12T17:58:35.559Z,0.25
2022-08-12T18:01:06.139Z,0.25
2022-08-12T18:04:04.448Z,0.20
2022-08-12T18:06:28.313Z,0.30
2022-08-12T18:08:56.781Z,0.30
2022-08-12T18:12:05.968Z,0.40
2022-08-12T18:14:31.236Z,0.20
2022-08-12T18:17:00.759Z,0.47
2022-08-12T18:19:28.347Z,0.30
2022-08-12T18:22:14.766Z,0.20
2022-08-12T18:24:41.218Z,0.45
2022-08-12T18:27:30.261Z,0.20
2022-08-12T18:29:55.634Z,0.40
2022-08-12T18:32:44.109Z,0.20
2022-08-12T18:35:12.255Z,0.10
2022-08-12T18:37:42.599Z,0.10
2022-08-12T18:40:28.064Z,0.10
2022-08-12T18:42:54.750Z,0.10
2022-08-12T18:45:31.647Z,0.30
2022-08-12T18:48:14.881Z,0.15
2022-08-12T18:50:49.289Z,0.20
2022-08-12T18:54:05.023Z,0.10
2022-08-12T18:56:07.386Z,0.10
2022-08-12T18:58:59.886Z,0.10
2022-08-12T19:02:21.791Z,0.10
2022-08-12T19:04:15.602Z,0.08
2022-08-12T19:06:46.509Z,0.00
2022-08-12T19:09:14.759Z,0.00
2022-08-12T19:12:02.926Z,0.10
2022-08-12T19:14:29.867Z,0.13
2022-08-12T19:16:57.839Z,0.08
2022-08-12T19:19:24.644Z,0.10
2022-08-12T19:21:56.701Z,0.00
2022-08-12T19:24:42.100Z,0.20
2022-08-12T19:27:10.427Z,0.10
2022-08-12T19:29:44.520Z,0.00
2022-08-12T19:32:31.333Z,0.00
2022-08-12T19:38:03.715Z,0.10
2022-08-12T19:40:34.446Z,0.00
2022-08-12T19:43:02.216Z,0.10
2022-08-12T19:45:48.765Z,0.10
2022-08-12T19:48:17.466Z,0.08
2022-08-12T19:50:44.717Z,0.00
2022-08-12T19:53:18.846Z,0.00
2022-08-12T19:55:51.770Z,0.10
2022-08-12T19:58:19.084Z,0.00
2022-08-12T20:00:52.712Z,0.00
2022-08-12T20:03:38.630Z,0.00
2022-08-12T20:06:13.497Z,0.10
2022-08-12T20:08:40.230Z,0.00
2022-08-12T20:12:13.915Z,0.00
2022-08-12T20:14:03.645Z,0.00
2022-08-12T20:16:52.198Z,0.10
2022-08-12T20:19:21.074Z,0.00
2022-08-12T20:21:49.938Z,0.00
2022-08-12T20:24:16.340Z,0.08
2022-08-12T20:26:45.696Z,0.10
2022-08-12T20:29:13.133Z,0.10
2022-08-12T20:31:39.698Z,0.10
2022-08-12T20:34:06.391Z,0.00
2022-08-12T20:36:40.950Z,0.00
2022-08-12T20:39:33.955Z,0.10
2022-08-12T20:41:58.687Z,0.00
2022-08-12T20:44:28.611Z,0.00
2022-08-12T20:47:16.682Z,0.00
2022-08-12T20:49:55.939Z,0.10
2022-08-12T20:52:29.241Z,0.00
2022-08-12T20:54:57.802Z,0.10
2022-08-12T20:57:24.369Z,0.00
2022-08-12T20:59:52.820Z,0.00
2022-08-12T21:02:24.399Z,0.10
2022-08-12T21:05:16.398Z,0.00
2022-08-12T21:07:47.845Z,0.10
2022-08-12T21:10:20.943Z,0.00
2022-08-12T21:12:48.021Z,0.05
2022-08-12T21:15:17.256Z,0.10
2022-08-12T21:18:09.668Z,0.17
2022-08-12T21:20:44.470Z,0.30
2022-08-12T21:23:10.997Z,0.20
2022-08-12T21:25:45.329Z,0.10
2022-08-12T21:28:12.954Z,0.10
2022-08-12T21:30:43.158Z,0.05
2022-08-12T21:33:30.788Z,0.00
2022-08-12T21:35:58.021Z,0.00
2022-08-12T21:38:34.468Z,0.10
2022-08-12T21:41:01.832Z,0.20
2022-08-12T21:43:44.474Z,0.10
2022-08-12T21:46:15.002Z,0.30
2022-08-12T21:49:04.614Z,0.20
2022-08-12T21:51:40.230Z,0.10
2022-08-12T21:54:21.845Z,0.20
2022-08-12T21:56:49.471Z,0.10
2022-08-12T21:59:16.668Z,0.10
2022-08-12T22:01:44.303Z,0.10
2022-08-12T22:04:34.682Z,0.20
2022-08-12T22:07:01.047Z,0.10
2022-08-12T22:09:28.662Z,0.10
2022-08-12T22:12:20.527Z,0.20
2022-08-12T22:14:49.829Z,0.20
2022-08-12T22:17:20.120Z,0.30
2022-08-12T22:19:49.888Z,0.20
2022-08-12T22:22:16.676Z,0.15
2022-08-12T22:24:43.837Z,0.10
2022-08-12T22:27:28.275Z,0.10
2022-08-12T22:30:16.607Z,0.10
2022-08-12T22:32:51.645Z,0.10
2022-08-12T22:35:55.534Z,0.20
2022-08-12T22:38:23.429Z,0.20
2022-08-12T22:40:51.234Z,0.30
2022-08-12T22:43:36.649Z,0.03
2022-08-12T22:46:26.610Z,0.20
2022-08-12T22:48:56.952Z,0.20
2022-08-12T22:51:24.471Z,0.20
2022-08-12T22:53:55.007Z,0.25
2022-08-12T22:56:22.551Z,0.20
2022-08-12T22:59:02.869Z,0.30
2022-08-12T23:01:52.008Z,0.10
2022-08-12T23:04:28.630Z,0.20
2022-08-12T23:06:55.883Z,0.20
2022-08-12T23:09:26.462Z,0.10
2022-08-12T23:12:01.897Z,0.17
2022-08-12T23:14:30.289Z,0.15
2022-08-12T23:16:56.638Z,0.13
2022-08-12T23:19:29.838Z,0.10
2022-08-12T23:22:35.717Z,0.10
2022-08-12T23:24:56.449Z,0.10
2022-08-12T23:27:44.211Z,0.10
2022-08-12T23:30:24.667Z,0.10
2022-08-12T23:32:59.900Z,0.10
2022-08-12T23:35:45.270Z,0.10
2022-08-12T23:38:12.558Z,0.10
2022-08-12T23:40:58.073Z,0.10
2022-08-12T23:43:25.475Z,0.10
2022-08-12T23:46:00.941Z,0.17
2022-08-12T23:48:31.452Z,0.10
2022-08-12T23:50:59.445Z,0.10
2022-08-12T23:53:32.359Z,0.10
2022-08-12T23:55:59.656Z,0.10
2022-08-12T23:58:28.186Z,0.20
